createdAt,value
2018-11-10T00:00:21.764Z,100.00
2018-11-10T00:02:51.416Z,100.00
2018-11-10T00:05:21.352Z,100.00
2018-11-10T00:07:50.694Z,100.00
2018-11-10T00:10:20.594Z,100.00
2018-11-10T00:12:50.132Z,100.00
2018-11-10T00:15:19.517Z,100.00
2018-11-10T00:17:48.878Z,100.00
2018-11-10T00:20:18.211Z,100.00
2018-11-10T00:22:47.782Z,100.00
2018-11-10T00:25:17.367Z,100.00
2018-11-10T00:27:47.364Z,100.00
2018-11-10T00:30:17.944Z,100.00
2018-11-10T00:32:47.775Z,100.00
2018-11-10T00:35:17.112Z,100.00
2018-11-10T00:37:46.709Z,100.00
2018-11-10T00:40:17.003Z,100.00
2018-11-10T00:42:46.620Z,100.00
2018-11-10T00:45:16.078Z,100.00
2018-11-10T00:47:45.608Z,100.00
2018-11-10T00:50:14.975Z,100.00
2018-11-10T00:52:44.400Z,100.00
2018-11-10T00:55:13.800Z,100.00
2018-11-10T00:57:43.158Z,100.00
2018-11-10T01:00:13.558Z,100.00
2018-11-10T01:02:44.114Z,100.00
2018-11-10T01:05:13.536Z,100.00
2018-11-10T01:07:43.173Z,100.00
2018-11-10T01:10:13.823Z,100.00
2018-11-10T01:12:43.444Z,100.00
2018-11-10T01:15:15.085Z,100.00
2018-11-10T01:17:44.861Z,100.00
2018-11-10T01:20:14.585Z,100.00
2018-11-10T01:22:44.230Z,100.00
2018-11-10T01:25:13.570Z,100.00
2018-11-10T01:27:43.061Z,100.00
2018-11-10T01:30:15.407Z,100.00
2018-11-10T01:32:45.787Z,100.00
2018-11-10T01:35:15.750Z,100.00
2018-11-10T01:37:45.093Z,100.00
2018-11-10T01:40:15.057Z,100.00
2018-11-10T01:42:44.822Z,100.00
2018-11-10T01:45:15.686Z,100.00
2018-11-10T01:47:45.370Z,100.00
2018-11-10T01:50:14.697Z,100.00
2018-11-10T01:52:44.130Z,100.00
2018-11-10T01:55:13.689Z,100.00
2018-11-10T01:57:43.687Z,100.00
2018-11-10T02:00:15.573Z,100.00
2018-11-10T02:02:45.375Z,100.00
2018-11-10T02:05:15.067Z,100.00
2018-11-10T02:07:44.480Z,100.00
2018-11-10T02:10:14.147Z,100.00
2018-11-10T02:12:43.656Z,100.00
2018-11-10T02:15:14.955Z,100.00
2018-11-10T02:17:44.412Z,100.00
2018-11-10T02:20:14.672Z,100.00
2018-11-10T02:22:44.312Z,100.00
2018-11-10T02:25:13.906Z,100.00
2018-11-10T02:27:43.153Z,100.00
2018-11-10T02:30:12.911Z,100.00
2018-11-10T02:32:42.544Z,100.00
2018-11-10T02:35:12.308Z,100.00
2018-11-10T02:37:42.048Z,100.00
2018-11-10T02:40:13.123Z,100.00
2018-11-10T02:42:42.835Z,100.00
2018-11-10T02:45:13.667Z,100.00
2018-11-10T02:47:43.524Z,100.00
2018-11-10T02:50:12.876Z,100.00
2018-11-10T02:52:42.157Z,100.00
2018-11-10T02:55:12.121Z,100.00
2018-11-10T02:57:41.995Z,100.00
2018-11-10T03:00:12.761Z,100.00
2018-11-10T03:02:42.154Z,100.00
2018-11-10T03:05:11.863Z,100.00
2018-11-10T03:07:41.363Z,100.00
2018-11-10T03:10:11.823Z,100.00
2018-11-10T03:12:41.846Z,100.00
2018-11-10T03:15:12.061Z,100.00
2018-11-10T03:17:41.590Z,100.00
2018-11-10T03:20:13.236Z,100.00
2018-11-10T03:22:42.973Z,100.00
2018-11-10T03:25:12.464Z,100.00
2018-11-10T03:27:41.938Z,100.00
2018-11-10T03:30:11.525Z,100.00
2018-11-10T03:32:41.101Z,100.00
2018-11-10T03:35:10.807Z,100.00
2018-11-10T03:37:40.771Z,100.00
2018-11-10T03:40:11.230Z,100.00
2018-11-10T03:42:41.051Z,100.00
2018-11-10T03:45:11.540Z,100.00
2018-11-10T03:47:41.209Z,100.00
2018-11-10T03:50:11.290Z,100.00
2018-11-10T03:52:40.875Z,100.00
2018-11-10T03:55:10.784Z,100.00
2018-11-10T03:57:40.180Z,100.00
2018-11-10T04:00:12.372Z,100.00
2018-11-10T04:02:42.917Z,100.00
2018-11-10T04:05:12.887Z,100.00
2018-11-10T04:07:43.389Z,100.00
2018-11-10T04:10:13.464Z,100.00
2018-11-10T04:12:43.019Z,100.00
2018-11-10T04:15:12.226Z,100.00
2018-11-10T04:17:41.760Z,100.00
2018-11-10T04:20:11.461Z,100.00
2018-11-10T04:22:40.742Z,100.00
2018-11-10T04:25:11.456Z,100.00
2018-11-10T04:27:40.835Z,100.00
2018-11-10T04:30:10.993Z,100.00
2018-11-10T04:32:40.445Z,100.00
2018-11-10T04:35:09.855Z,100.00
2018-11-10T04:37:39.310Z,100.00
2018-11-10T04:40:09.487Z,100.00
2018-11-10T04:42:38.824Z,100.00
2018-11-10T04:45:09.074Z,100.00
2018-11-10T04:47:38.557Z,100.00
2018-11-10T04:50:09.373Z,100.00
2018-11-10T04:52:38.850Z,100.00
2018-11-10T04:55:08.867Z,100.00
2018-11-10T04:57:38.298Z,100.00
2018-11-10T05:00:09.702Z,100.00
2018-11-10T05:02:39.158Z,100.00
2018-11-10T05:05:08.919Z,100.00
2018-11-10T05:07:38.604Z,100.00
2018-11-10T05:10:08.941Z,100.00
2018-11-10T05:12:38.190Z,100.00
2018-11-10T05:15:08.754Z,100.00
2018-11-10T05:17:38.001Z,100.00
2018-11-10T05:20:07.628Z,100.00
2018-11-10T05:22:37.147Z,100.00
2018-11-10T05:25:07.181Z,100.00
2018-11-10T05:27:36.587Z,100.00
2018-11-10T05:30:06.776Z,100.00
2018-11-10T05:32:36.259Z,100.00
2018-11-10T05:35:06.252Z,100.00
2018-11-10T05:37:35.680Z,100.00
2018-11-10T05:40:05.701Z,100.00
2018-11-10T05:42:36.214Z,100.00
2018-11-10T05:45:05.697Z,100.00
2018-11-10T05:47:35.192Z,100.00
2018-11-10T05:50:04.988Z,100.00
2018-11-10T05:52:34.376Z,100.00
2018-11-10T05:55:03.678Z,100.00
2018-11-10T05:57:33.176Z,100.00
2018-11-10T06:00:02.777Z,100.00
2018-11-10T06:02:32.325Z,100.00
2018-11-10T06:05:01.691Z,100.00
2018-11-10T06:07:30.999Z,100.00
2018-11-10T06:10:00.401Z,100.00
2018-11-10T06:12:29.745Z,100.00
2018-11-10T06:14:59.963Z,100.00
2018-11-10T06:17:29.424Z,100.00
2018-11-10T06:19:58.867Z,100.00
2018-11-10T06:22:28.368Z,100.00
2018-11-10T06:24:57.881Z,100.00
2018-11-10T06:27:27.154Z,100.00
2018-11-10T06:29:56.243Z,100.00
2018-11-10T06:32:25.555Z,100.00
2018-11-10T06:34:55.848Z,100.00
2018-11-10T06:37:25.167Z,100.00
2018-11-10T06:39:54.547Z,100.00
2018-11-10T06:42:23.717Z,100.00
2018-11-10T06:44:52.779Z,100.00
2018-11-10T06:47:22.162Z,100.00
2018-11-10T06:49:51.582Z,100.00
2018-11-10T06:52:20.931Z,100.00
2018-11-10T06:54:50.857Z,100.00
2018-11-10T06:57:20.561Z,100.00
2018-11-10T06:59:49.814Z,100.00
2018-11-10T07:02:19.233Z,100.00
2018-11-10T07:04:48.274Z,100.00
2018-11-10T07:07:17.584Z,100.00
2018-11-10T07:09:47.159Z,100.00
2018-11-10T07:12:16.406Z,100.00
2018-11-10T07:14:45.921Z,100.00
2018-11-10T07:17:15.453Z,100.00
2018-11-10T07:19:44.567Z,100.00
2018-11-10T07:22:13.878Z,100.00
2018-11-10T07:24:42.990Z,100.00
2018-11-10T07:27:12.343Z,100.00
2018-11-10T07:29:41.744Z,100.00
2018-11-10T07:32:11.171Z,100.00
2018-11-10T07:34:40.585Z,100.00
2018-11-10T07:37:09.947Z,100.00
2018-11-10T07:39:39.297Z,100.00
2018-11-10T07:42:08.723Z,100.00
2018-11-10T07:44:37.794Z,100.00
2018-11-10T07:47:07.241Z,100.00
2018-11-10T07:49:37.147Z,100.00
2018-11-10T07:52:07.144Z,100.00
2018-11-10T07:54:36.552Z,100.00
2018-11-10T07:57:06.041Z,100.00
2018-11-10T07:59:35.643Z,100.00
2018-11-10T08:02:05.323Z,100.00
2018-11-10T08:04:34.796Z,100.00
2018-11-10T08:07:04.401Z,100.00
2018-11-10T08:09:33.795Z,100.00
2018-11-10T08:12:03.432Z,100.00
2018-11-10T08:14:32.515Z,100.00
2018-11-10T08:17:01.926Z,100.00
2018-11-10T08:19:31.043Z,100.00
2018-11-10T08:22:00.566Z,100.00
2018-11-10T08:24:29.942Z,100.00
2018-11-10T08:26:59.347Z,100.00
2018-11-10T08:29:29.033Z,100.00
2018-11-10T08:31:58.904Z,100.00
2018-11-10T08:34:29.250Z,100.00
2018-11-10T08:36:58.518Z,100.00
2018-11-10T08:39:27.488Z,100.00
2018-11-10T08:41:56.525Z,100.00
2018-11-10T08:44:25.935Z,100.00
2018-11-10T08:46:55.294Z,100.00
2018-11-10T08:49:24.309Z,100.00
2018-11-10T08:51:53.496Z,100.00
2018-11-10T08:54:22.631Z,100.00
2018-11-10T08:56:52.098Z,100.00
2018-11-10T08:59:21.427Z,100.00
2018-11-10T09:01:50.930Z,100.00
2018-11-10T09:04:19.907Z,100.00
2018-11-10T09:06:48.981Z,100.00
2018-11-10T09:09:18.831Z,100.00
2018-11-10T09:11:48.338Z,100.00
2018-11-10T09:14:17.667Z,100.00
2018-11-10T09:16:47.138Z,100.00
2018-11-10T09:19:16.742Z,100.00
2018-11-10T09:21:46.633Z,100.00
2018-11-10T09:24:15.692Z,100.00
2018-11-10T09:26:45.135Z,97.31
2018-11-10T09:29:14.427Z,94.59
2018-11-10T09:31:43.730Z,90.49
2018-11-10T09:34:13.096Z,94.10
2018-11-10T09:36:42.589Z,95.97
2018-11-10T09:39:11.974Z,94.58
2018-11-10T09:41:41.313Z,89.11
2018-11-10T09:44:10.626Z,89.95
2018-11-10T09:46:39.873Z,88.20
2018-11-10T09:49:09.345Z,88.66
2018-11-10T09:51:38.928Z,89.23
2018-11-10T09:54:08.137Z,87.22
2018-11-10T09:56:37.541Z,88.15
2018-11-10T09:59:06.713Z,90.53
2018-11-10T10:01:36.507Z,90.53
2018-11-10T10:04:05.732Z,92.25
2018-11-10T10:06:35.241Z,93.82
2018-11-10T10:09:05.448Z,91.19
2018-11-10T10:11:35.257Z,95.37
2018-11-10T10:14:04.675Z,94.88
2018-11-10T10:16:33.952Z,92.48
2018-11-10T10:19:03.340Z,95.31
2018-11-10T10:21:32.678Z,95.99
2018-11-10T10:24:02.114Z,90.70
2018-11-10T10:26:31.636Z,88.56
2018-11-10T10:29:00.927Z,92.22
2018-11-10T10:31:30.218Z,93.81
2018-11-10T10:33:59.825Z,93.03
2018-11-10T10:36:29.215Z,92.28
2018-11-10T10:38:58.678Z,92.19
2018-11-10T10:41:28.172Z,90.94
2018-11-10T10:43:57.542Z,90.60
2018-11-10T10:46:26.959Z,88.33
2018-11-10T10:48:56.572Z,91.32
2018-11-10T10:51:25.853Z,92.78
2018-11-10T10:53:55.228Z,91.69
2018-11-10T10:56:24.627Z,92.42
2018-11-10T10:58:54.257Z,86.83
2018-11-10T11:01:28.535Z,88.25
2018-11-10T11:04:05.018Z,88.27
2018-11-10T11:06:34.558Z,90.52
2018-11-10T11:09:04.299Z,89.00
2018-11-10T11:11:34.094Z,90.35
2018-11-10T11:14:03.893Z,90.41
2018-11-10T11:16:33.336Z,92.13
2018-11-10T11:19:02.749Z,92.71
2018-11-10T11:21:32.209Z,90.58
2018-11-10T11:24:01.740Z,93.12
2018-11-10T11:26:31.065Z,90.23
2018-11-10T11:29:00.661Z,89.42
2018-11-10T11:31:30.285Z,86.75
2018-11-10T11:33:59.811Z,88.61
2018-11-10T11:36:29.241Z,91.46
2018-11-10T11:38:58.710Z,92.98
2018-11-10T11:41:28.173Z,88.05
2018-11-10T11:43:57.578Z,89.71
2018-11-10T11:46:26.855Z,93.34
2018-11-10T11:48:56.170Z,91.96
2018-11-10T11:51:25.605Z,93.23
2018-11-10T11:53:55.099Z,92.90
2018-11-10T11:56:24.386Z,87.03
2018-11-10T11:58:54.203Z,87.69
2018-11-10T12:01:23.479Z,91.98
2018-11-10T12:03:52.891Z,92.04
2018-11-10T12:06:22.265Z,94.05
2018-11-10T12:08:51.329Z,94.94
2018-11-10T12:11:20.491Z,91.56
2018-11-10T12:13:49.944Z,92.93
2018-11-10T12:16:27.184Z,90.26
2018-11-10T12:18:48.930Z,87.27
2018-11-10T12:21:18.216Z,91.00
2018-11-10T12:23:47.509Z,90.44
2018-11-10T12:26:16.893Z,93.78
2018-11-10T12:28:46.222Z,93.35
2018-11-10T12:31:15.566Z,93.53
2018-11-10T12:33:45.009Z,92.82
2018-11-10T12:36:14.333Z,94.66
2018-11-10T12:38:43.944Z,94.53
2018-11-10T12:41:13.210Z,92.96
2018-11-10T12:43:42.749Z,89.72
2018-11-10T12:46:12.343Z,87.24
2018-11-10T12:48:41.757Z,90.51
2018-11-10T12:51:11.130Z,93.68
2018-11-10T12:53:40.459Z,91.02
2018-11-10T12:56:09.744Z,91.22
2018-11-10T12:58:39.102Z,91.85
2018-11-10T13:01:08.562Z,91.13
2018-11-10T13:03:37.970Z,93.00
2018-11-10T13:06:07.394Z,96.73
2018-11-10T13:08:36.690Z,97.45
2018-11-10T13:11:06.605Z,96.10
2018-11-10T13:13:36.149Z,99.22
2018-11-10T13:16:05.626Z,99.11
2018-11-10T13:18:35.018Z,93.33
2018-11-10T13:21:04.500Z,95.59
2018-11-10T13:23:33.904Z,93.24
2018-11-10T13:26:03.425Z,96.73
2018-11-10T13:28:32.873Z,97.89
2018-11-10T13:31:03.595Z,98.83
2018-11-10T13:33:32.753Z,96.93
2018-11-10T13:36:02.182Z,98.30
2018-11-10T13:38:31.565Z,97.71
2018-11-10T13:41:01.030Z,98.08
2018-11-10T13:43:30.493Z,100.00
2018-11-10T13:46:00.081Z,99.18
2018-11-10T13:48:29.595Z,99.90
2018-11-10T13:50:59.371Z,98.95
2018-11-10T13:53:28.553Z,97.81
2018-11-10T13:55:58.213Z,98.48
2018-11-10T13:58:27.601Z,99.61
2018-11-10T14:00:57.797Z,97.54
2018-11-10T14:03:27.279Z,97.70
2018-11-10T14:05:56.751Z,97.42
2018-11-10T14:08:26.301Z,100.00
2018-11-10T14:10:55.849Z,100.00
2018-11-10T14:13:25.266Z,98.63
2018-11-10T14:15:54.735Z,100.00
2018-11-10T14:18:24.195Z,100.00
2018-11-10T14:20:53.678Z,100.00
2018-11-10T14:23:23.044Z,100.00
2018-11-10T14:25:52.599Z,100.00
2018-11-10T14:28:21.937Z,100.00
2018-11-10T14:30:51.284Z,100.00
2018-11-10T14:33:20.692Z,100.00
2018-11-10T14:35:50.191Z,100.00
2018-11-10T14:38:19.459Z,100.00
2018-11-10T14:40:48.809Z,100.00
2018-11-10T14:43:18.107Z,100.00
2018-11-10T14:45:47.186Z,100.00
2018-11-10T14:48:16.608Z,100.00
2018-11-10T14:50:45.873Z,100.00
2018-11-10T14:53:15.443Z,100.00
2018-11-10T14:55:45.077Z,100.00
2018-11-10T14:58:14.574Z,100.00
2018-11-10T15:00:44.037Z,100.00
2018-11-10T15:03:13.440Z,100.00
2018-11-10T15:05:42.997Z,100.00
2018-11-10T15:08:12.498Z,100.00
2018-11-10T15:10:41.690Z,100.00
2018-11-10T15:13:11.054Z,100.00
2018-11-10T15:15:40.418Z,100.00
2018-11-10T15:18:09.690Z,100.00
2018-11-10T15:20:39.056Z,100.00
2018-11-10T15:23:08.529Z,100.00
2018-11-10T15:25:37.807Z,100.00
2018-11-10T15:28:06.907Z,100.00
2018-11-10T15:30:36.325Z,100.00
2018-11-10T15:33:05.392Z,100.00
2018-11-10T15:35:34.472Z,100.00
2018-11-10T15:38:03.922Z,100.00
2018-11-10T15:40:33.399Z,100.00
2018-11-10T15:43:02.780Z,100.00
2018-11-10T15:45:32.327Z,100.00
2018-11-10T15:48:01.778Z,100.00
2018-11-10T15:50:30.834Z,100.00
2018-11-10T15:53:00.326Z,100.00
2018-11-10T15:55:29.783Z,100.00
2018-11-10T15:57:59.348Z,100.00
2018-11-10T16:00:28.614Z,100.00
2018-11-10T16:02:57.595Z,100.00
2018-11-10T16:05:26.705Z,100.00
2018-11-10T16:07:55.827Z,100.00
2018-11-10T16:10:24.905Z,100.00
2018-11-10T16:12:54.309Z,100.00
2018-11-10T16:15:23.747Z,100.00
2018-11-10T16:17:53.228Z,100.00
2018-11-10T16:20:22.617Z,100.00
2018-11-10T16:22:52.422Z,100.00
2018-11-10T16:25:21.725Z,100.00
2018-11-10T16:27:51.250Z,100.00
2018-11-10T16:30:20.877Z,100.00
2018-11-10T16:32:50.876Z,100.00
2018-11-10T16:35:20.173Z,100.00
2018-11-10T16:37:49.643Z,100.00
2018-11-10T16:40:19.956Z,100.00
2018-11-10T16:42:49.699Z,100.00
2018-11-10T16:45:19.814Z,100.00
2018-11-10T16:47:49.261Z,100.00
2018-11-10T16:50:18.639Z,100.00
2018-11-10T16:52:47.954Z,100.00
2018-11-10T16:55:17.384Z,100.00
2018-11-10T16:57:47.038Z,100.00
2018-11-10T17:00:18.009Z,100.00
2018-11-10T17:02:47.486Z,100.00
2018-11-10T17:05:17.073Z,100.00
2018-11-10T17:07:46.630Z,100.00
2018-11-10T17:10:17.388Z,100.00
2018-11-10T17:12:46.538Z,100.00
2018-11-10T17:15:15.844Z,100.00
2018-11-10T17:17:44.921Z,100.00
2018-11-10T17:20:15.563Z,100.00
2018-11-10T17:22:45.132Z,100.00
2018-11-10T17:25:15.280Z,100.00
2018-11-10T17:27:44.960Z,100.00
2018-11-10T17:30:19.002Z,100.00
2018-11-10T17:32:48.354Z,100.00
2018-11-10T17:35:17.374Z,100.00
2018-11-10T17:37:46.625Z,100.00
2018-11-10T17:40:16.485Z,100.00
2018-11-10T17:42:45.780Z,100.00
2018-11-10T17:45:17.320Z,100.00
2018-11-10T17:47:46.642Z,100.00
2018-11-10T17:50:17.166Z,100.00
2018-11-10T17:52:46.712Z,100.00
2018-11-10T17:55:17.142Z,100.00
2018-11-10T17:57:46.969Z,100.00
2018-11-10T18:00:16.341Z,100.00
2018-11-10T18:02:46.119Z,100.00
2018-11-10T18:05:16.464Z,100.00
2018-11-10T18:07:46.093Z,100.00
2018-11-10T18:10:16.692Z,100.00
2018-11-10T18:12:46.419Z,100.00
2018-11-10T18:15:16.099Z,100.00
2018-11-10T18:17:45.741Z,100.00
2018-11-10T18:20:16.212Z,100.00
2018-11-10T18:22:45.856Z,100.00
2018-11-10T18:25:15.000Z,100.00
2018-11-10T18:27:44.199Z,100.00
2018-11-10T18:30:14.401Z,100.00
2018-11-10T18:32:44.239Z,100.00
2018-11-10T18:35:13.883Z,100.00
2018-11-10T18:37:43.451Z,100.00
2018-11-10T18:40:12.975Z,100.00
2018-11-10T18:42:42.608Z,100.00
2018-11-10T18:45:12.550Z,100.00
2018-11-10T18:47:42.302Z,100.00
2018-11-10T18:50:13.743Z,100.00
2018-11-10T18:52:43.193Z,100.00
2018-11-10T18:55:13.067Z,100.00
2018-11-10T18:57:42.518Z,100.00
2018-11-10T19:00:13.821Z,100.00
2018-11-10T19:02:42.893Z,100.00
2018-11-10T19:05:13.570Z,100.00
2018-11-10T19:07:43.038Z,100.00
2018-11-10T19:10:13.762Z,100.00
2018-11-10T19:12:43.271Z,100.00
2018-11-10T19:15:14.862Z,100.00
2018-11-10T19:17:44.441Z,100.00
2018-11-10T19:20:14.447Z,100.00
2018-11-10T19:22:43.948Z,100.00
2018-11-10T19:25:14.003Z,100.00
2018-11-10T19:27:43.398Z,100.00
2018-11-10T19:30:15.435Z,100.00
2018-11-10T19:32:45.465Z,100.00
2018-11-10T19:35:15.743Z,100.00
2018-11-10T19:37:45.487Z,100.00
2018-11-10T19:40:14.905Z,100.00
2018-11-10T19:42:45.401Z,100.00
2018-11-10T19:45:15.487Z,100.00
2018-11-10T19:47:45.760Z,100.00
2018-11-10T19:50:15.419Z,100.00
2018-11-10T19:52:44.858Z,100.00
2018-11-10T19:55:15.798Z,100.00
2018-11-10T19:57:45.336Z,100.00
2018-11-10T20:00:20.712Z,100.00
2018-11-10T20:02:50.032Z,100.00
2018-11-10T20:05:19.496Z,100.00
2018-11-10T20:07:48.904Z,100.00
2018-11-10T20:10:18.244Z,100.00
2018-11-10T20:12:47.486Z,100.00
2018-11-10T20:15:17.513Z,100.00
2018-11-10T20:17:47.105Z,100.00
2018-11-10T20:20:17.947Z,100.00
2018-11-10T20:22:47.309Z,100.00
2018-11-10T20:25:17.835Z,100.00
2018-11-10T20:27:47.229Z,100.00
2018-11-10T20:30:17.631Z,100.00
2018-11-10T20:32:47.396Z,100.00
2018-11-10T20:35:16.896Z,100.00
2018-11-10T20:37:46.712Z,100.00
2018-11-10T20:40:16.378Z,100.00
2018-11-10T20:42:45.471Z,100.00
2018-11-10T20:45:19.102Z,100.00
2018-11-10T20:47:48.136Z,100.00
2018-11-10T20:50:17.613Z,100.00
2018-11-10T20:52:46.726Z,100.00
2018-11-10T20:55:16.414Z,100.00
2018-11-10T20:57:45.690Z,100.00
2018-11-10T21:00:17.661Z,100.00
2018-11-10T21:02:47.323Z,100.00
2018-11-10T21:05:16.771Z,100.00
2018-11-10T21:07:46.225Z,100.00
2018-11-10T21:10:17.358Z,100.00
2018-11-10T21:12:47.517Z,100.00
2018-11-10T21:15:17.445Z,100.00
2018-11-10T21:17:46.828Z,100.00
2018-11-10T21:20:16.069Z,100.00
2018-11-10T21:22:45.333Z,100.00
2018-11-10T21:25:16.379Z,100.00
2018-11-10T21:27:45.980Z,100.00
2018-11-10T21:30:16.592Z,100.00
2018-11-10T21:32:46.391Z,100.00
2018-11-10T21:35:16.142Z,100.00
2018-11-10T21:37:45.543Z,100.00
2018-11-10T21:40:17.089Z,100.00
2018-11-10T21:42:46.557Z,100.00
2018-11-10T21:45:16.468Z,100.00
2018-11-10T21:47:46.132Z,100.00
2018-11-10T21:50:17.455Z,100.00
2018-11-10T21:52:47.097Z,100.00
2018-11-10T21:55:18.757Z,100.00
2018-11-10T21:57:48.957Z,100.00
2018-11-10T22:00:20.051Z,100.00
2018-11-10T22:02:49.740Z,100.00
2018-11-10T22:05:19.593Z,100.00
2018-11-10T22:07:49.201Z,100.00
2018-11-10T22:10:19.351Z,100.00
2018-11-10T22:12:48.867Z,100.00
2018-11-10T22:15:21.578Z,100.00
2018-11-10T22:17:51.187Z,100.00
2018-11-10T22:20:21.951Z,100.00
2018-11-10T22:22:51.343Z,100.00
2018-11-10T22:25:20.794Z,100.00
2018-11-10T22:27:51.562Z,100.00
2018-11-10T22:30:21.855Z,100.00
2018-11-10T22:32:51.465Z,100.00
2018-11-10T22:35:21.102Z,100.00
2018-11-10T22:37:50.579Z,100.00
2018-11-10T22:40:21.335Z,100.00
2018-11-10T22:42:50.751Z,100.00
2018-11-10T22:45:21.355Z,100.00
2018-11-10T22:47:51.353Z,100.00
2018-11-10T22:50:21.836Z,100.00
2018-11-10T22:52:51.327Z,100.00
2018-11-10T22:55:20.722Z,100.00
2018-11-10T22:57:50.321Z,100.00
2018-11-10T23:00:22.831Z,100.00
2018-11-10T23:02:53.555Z,100.00
2018-11-10T23:05:23.647Z,100.00
2018-11-10T23:07:53.071Z,100.00
2018-11-10T23:10:22.603Z,100.00
2018-11-10T23:12:52.742Z,100.00
2018-11-10T23:15:22.088Z,100.00
2018-11-10T23:17:51.918Z,100.00
2018-11-10T23:20:21.608Z,100.00
2018-11-10T23:22:51.017Z,100.00
2018-11-10T23:25:20.423Z,100.00
2018-11-10T23:27:49.924Z,100.00
2018-11-10T23:30:21.604Z,100.00
2018-11-10T23:32:50.965Z,100.00
2018-11-10T23:35:20.432Z,100.00
2018-11-10T23:37:49.671Z,100.00
2018-11-10T23:40:19.137Z,100.00
2018-11-10T23:42:48.747Z,100.00
2018-11-10T23:45:18.143Z,100.00
2018-11-10T23:47:47.811Z,100.00
2018-11-10T23:50:18.314Z,100.00
2018-11-10T23:52:47.921Z,100.00
2018-11-10T23:55:17.605Z,100.00
2018-11-10T23:57:47.142Z,100.00
